Time;durP1;ratioP1;P1;durP2;ratioP2;P2;SDS_P1;SDS_P2;PMS_P1;PMS_P2;Temp;Humidity;BMP_temperature;BMP_pressure;BME280_temperature;BME280_humidity;BME280_pressure;Samples;Min_cycle;Max_cycle;Signal;HPM_P1;HPM_P2
2021/04/28 00:00:39;;;;;;;;;;;;;;;4.97;100.00;98392.84;5073523;28;19924;-82
2021/04/28 00:03:07;;;;;;;;;;;;;;;4.94;100.00;98384.53;5073290;28;19931;-81
2021/04/28 00:05:34;;;;;;;;;;;;;;;4.89;100.00;98387.75;5072987;28;19925;-82
2021/04/28 00:08:01;;;;;;;;;;;;;;;4.84;100.00;98383.41;5085433;28;20022;-82
2021/04/28 00:10:29;;;;;;;;;;;;;;;4.78;100.00;98379.50;5075184;28;20379;-82
2021/04/28 00:12:56;;;;;;;;;;;;;;;4.74;100.00;98387.00;5058175;28;19924;-82
2021/04/28 00:15:24;;;;;;;;;;;;;;;4.76;100.00;98381.84;5092432;28;19931;-82
2021/04/28 00:17:52;;;;;;;;;;;;;;;4.71;100.00;98382.25;5059249;28;19924;-82
2021/04/28 00:20:21;;;;;;;;;;;;;;;4.70;100.00;98385.44;5076987;28;19925;-82
2021/04/28 00:22:47;;;;;;;;;;;;;;;4.65;100.00;98380.31;5077168;28;19932;-82
2021/04/28 00:25:18;;;;;;;;;;;;;;;4.62;100.00;98384.66;5077003;28;20359;-82
2021/04/28 00:27:45;;;;;;;;;;;;;;;4.58;100.00;98381.13;5059152;28;19966;-82
2021/04/28 00:30:13;;;;;;;;;;;;;;;4.58;100.00;98383.91;5076818;28;19930;-82
2021/04/28 00:32:41;;;;;;;;;;;;;;;4.57;100.00;98379.56;5058878;28;20083;-82
2021/04/28 00:35:09;;;;;;;;;;;;;;;4.67;100.00;98389.78;5076666;28;20429;-82
2021/04/28 00:37:37;;;;;;;;;;;;;;;4.57;100.00;98379.56;5058843;28;20386;-82
2021/04/28 00:40:08;;;;;;;;;;;;;;;4.66;100.00;98379.94;5058758;28;19924;-82
2021/04/28 00:42:35;;;;;;;;;;;;;;;4.47;100.00;98374.06;5076730;28;19925;-83
2021/04/28 00:45:03;;;;;;;;;;;;;;;4.48;100.00;98384.72;5058708;28;19929;-82
2021/04/28 00:47:30;;;;;;;;;;;;;;;4.41;100.00;98367.38;5058560;28;19955;-82
2021/04/28 00:49:57;;;;;;;;;;;;;;;4.36;100.00;98381.59;5058476;28;19925;-82
2021/04/28 00:52:24;;;;;;;;;;;;;;;4.28;100.00;98382.78;5075231;28;19924;-82
2021/04/28 00:54:51;;;;;;;;;;;;;;;4.29;100.00;98387.91;5076193;28;20317;-82
2021/04/28 00:57:18;;;;;;;;;;;;;;;4.27;100.00;98379.22;5058456;28;19935;-82
2021/04/28 00:59:45;;;;;;;;;;;;;;;4.29;100.00;98387.91;5058434;28;20272;-82
2021/04/28 01:02:12;;;;;;;;;;;;;;;4.27;100.00;98381.22;5076253;28;19931;-82
2021/04/28 01:04:38;;;;;;;;;;;;;;;4.23;100.00;98380.41;5088325;28;19924;-82
2021/04/28 01:07:08;;;;;;;;;;;;;;;4.25;100.00;98381.63;5074159;28;19924;-82
2021/04/28 01:09:35;;;;;;;;;;;;;;;4.28;100.00;98378.06;5091825;28;19947;-82
2021/04/28 01:12:03;;;;;;;;;;;;;;;4.26;100.00;98371.31;5075377;28;19924;-82
2021/04/28 01:14:30;;;;;;;;;;;;;;;4.31;100.00;98374.50;5091519;28;19924;-82
2021/04/28 01:16:58;;;;;;;;;;;;;;;4.30;100.00;98378.44;5075306;28;19924;-82
2021/04/28 01:19:26;;;;;;;;;;;;;;;4.34;100.00;98379.22;5074365;28;20317;-82
2021/04/28 01:21:55;;;;;;;;;;;;;;;4.29;100.00;98381.59;5091091;28;19928;-82
2021/04/28 01:24:22;;;;;;;;;;;;;;;4.37;100.00;98378.44;5075410;28;20383;-82
2021/04/28 01:26:52;;;;;;;;;;;;;;;4.24;100.00;98374.50;5087174;28;19948;-82
2021/04/28 01:29:21;;;;;;;;;;;;;;;4.24;100.00;98382.78;5054950;28;20019;-82
2021/04/28 01:31:48;;;;;;;;;;;;;;;4.22;100.00;98382.41;5070708;28;20015;-81
2021/04/28 01:34:15;;;;;;;;;;;;;;;4.32;100.00;98375.25;5074709;28;19924;-82
2021/04/28 01:36:42;;;;;;;;;;;;;;;4.27;100.00;98382.00;5075409;28;19943;-82
2021/04/28 01:39:11;;;;;;;;;;;;;;;4.21;100.00;98375.28;5091120;28;19928;-82
2021/04/28 01:41:42;;;;;;;;;;;;;;;4.21;100.00;98374.50;5057423;28;19981;-82
2021/04/28 01:44:10;;;;;;;;;;;;;;;4.25;100.00;98376.09;5075195;28;19924;-82
2021/04/28 01:46:40;;;;;;;;;;;;;;;4.33;100.00;98374.88;5057134;28;20375;-82
2021/04/28 01:49:07;;;;;;;;;;;;;;;4.35;100.00;98369.72;5074978;28;19975;-82
2021/04/28 01:51:35;;;;;;;;;;;;;;;4.30;100.00;98367.38;5057311;28;19993;-82
2021/04/28 01:54:03;;;;;;;;;;;;;;;4.29;100.00;98376.84;5090394;28;19924;-82
2021/04/28 01:56:30;;;;;;;;;;;;;;;4.28;100.00;98375.28;5074673;28;19980;-82
2021/04/28 01:59:16;;;;;;;;;;;;;;;4.23;100.00;98383.19;5074831;28;19925;-82
2021/04/28 02:02:02;;;;;;;;;;;;;;;4.23;100.00;98381.22;5074573;28;19936;-82
2021/04/28 02:04:42;;;;;;;;;;;;;;;4.30;100.00;98383.97;5106270;28;19963;-82
2021/04/28 02:07:09;;;;;;;;;;;;;;;4.26;100.00;98388.72;5056866;28;19924;-82
2021/04/28 02:09:37;;;;;;;;;;;;;;;4.25;100.00;98386.34;5090094;28;19932;-82
2021/04/28 02:12:11;;;;;;;;;;;;;;;4.22;100.00;98384.38;5046388;28;20375;-82
2021/04/28 02:14:41;;;;;;;;;;;;;;;4.21;100.00;98386.34;5049669;28;20368;-82
2021/04/28 02:17:21;;;;;;;;;;;;;;;4.18;100.00;98381.63;5033562;28;19925;-82
2021/04/28 02:19:48;;;;;;;;;;;;;;;4.14;100.00;98389.13;5050119;28;19936;-82
2021/04/28 02:22:16;;;;;;;;;;;;;;;4.11;100.00;98386.34;5034630;28;20406;-81
2021/04/28 02:24:47;;;;;;;;;;;;;;;4.12;100.00;98390.72;5034344;28;19933;-82
2021/04/28 02:27:20;;;;;;;;;;;;;;;4.15;100.00;98393.47;5066519;28;19932;-82
2021/04/28 02:29:50;;;;;;;;;;;;;;;4.12;100.00;98390.72;5033068;28;19925;-82
2021/04/28 02:32:16;;;;;;;;;;;;;;;4.12;100.00;98401.78;5016914;28;19925;-82
2021/04/28 02:35:19;;;;;;;;;;;;;;;4.10;100.00;98399.41;5044776;28;19933;-82
2021/04/28 02:38:19;;;;;;;;;;;;;;;4.12;100.00;98399.03;5029287;28;20022;-82
2021/04/28 02:41:07;;;;;;;;;;;;;;;4.08;100.00;98393.47;5034711;28;19925;-82
2021/04/28 02:43:37;;;;;;;;;;;;;;;4.08;100.00;98382.44;5048156;28;19972;-82
2021/04/28 02:46:10;;;;;;;;;;;;;;;4.15;100.00;98387.94;5048387;28;20027;-82
2021/04/28 02:48:42;;;;;;;;;;;;;;;4.12;100.00;98377.66;5015188;28;19925;-82
2021/04/28 02:51:29;;;;;;;;;;;;;;;4.12;100.00;98382.44;5031729;28;20012;-82
2021/04/28 02:53:58;;;;;;;;;;;;;;;4.27;100.00;98390.28;5031365;28;20145;-82
2021/04/28 02:56:27;;;;;;;;;;;;;;;4.16;100.00;98377.69;5048164;28;19948;-82
2021/04/28 02:58:55;;;;;;;;;;;;;;;4.15;100.00;98376.09;5045378;28;19925;-82
2021/04/28 03:01:23;;;;;;;;;;;;;;;4.22;100.00;98379.66;5025108;28;19925;-82
2021/04/28 03:03:51;;;;;;;;;;;;;;;4.21;100.00;98374.50;5032892;28;19931;-82
2021/04/28 03:06:29;;;;;;;;;;;;;;;4.22;100.00;98379.66;5021501;28;20435;-82
2021/04/28 03:08:58;;;;;;;;;;;;;;;4.21;100.00;98375.28;5027350;28;19999;-82
2021/04/28 03:11:25;;;;;;;;;;;;;;;4.23;100.00;98372.13;5036089;28;19952;-82
2021/04/28 03:13:57;;;;;;;;;;;;;;;4.24;100.00;98366.19;5089004;28;19925;-82
2021/04/28 03:16:25;;;;;;;;;;;;;;;4.19;100.00;98372.16;5089149;28;19925;-82
2021/04/28 03:18:52;;;;;;;;;;;;;;;4.20;100.00;98372.91;5089163;28;19931;-82
2021/04/28 03:21:21;;;;;;;;;;;;;;;4.16;100.00;98367.41;5073472;28;19925;-82
2021/04/28 03:23:49;;;;;;;;;;;;;;;4.35;100.00;98358.66;5055416;28;20436;-82
2021/04/28 03:26:16;;;;;;;;;;;;;;;4.47;100.00;98358.25;5073454;28;19931;-82
2021/04/28 03:28:44;;;;;;;;;;;;;;;4.33;100.00;98357.50;5088878;28;19932;-82
2021/04/28 03:31:11;;;;;;;;;;;;;;;4.49;100.00;98358.63;5089057;28;19924;-82
2021/04/28 03:33:38;;;;;;;;;;;;;;;4.43;100.00;98353.91;5073207;28;19929;-82
2021/04/28 03:36:09;;;;;;;;;;;;;;;4.45;100.00;98349.56;5055463;28;19925;-82
2021/04/28 03:38:50;;;;;;;;;;;;;;;4.56;100.00;98353.06;5055703;28;19931;-82
2021/04/28 03:41:18;;;;;;;;;;;;;;;4.55;100.00;98351.50;5039283;28;19951;-82
2021/04/28 03:43:45;;;;;;;;;;;;;;;4.48;100.00;98346.00;5073102;28;19948;-81
2021/04/28 03:46:13;;;;;;;;;;;;;;;4.41;100.00;98345.25;5074976;28;20283;-81
2021/04/28 03:48:44;;;;;;;;;;;;;;;4.47;100.00;98343.63;5092345;28;19924;-82
2021/04/28 03:51:13;;;;;;;;;;;;;;;4.50;100.00;98340.84;5092868;28;19928;-82
2021/04/28 03:54:03;;;;;;;;;;;;;;;4.42;100.00;98336.53;5015090;28;19929;-82
2021/04/28 03:56:31;;;;;;;;;;;;;;;4.36;100.00;98338.13;4998572;28;20036;-82
2021/04/28 03:58:57;;;;;;;;;;;;;;;4.35;100.00;98333.78;5014933;28;19936;-82
2021/04/28 04:01:24;;;;;;;;;;;;;;;4.27;100.00;98334.22;4966578;28;19952;-82
2021/04/28 04:03:51;;;;;;;;;;;;;;;4.29;100.00;98340.09;5014978;28;19925;-82
2021/04/28 04:06:35;;;;;;;;;;;;;;;4.36;100.00;98338.13;5014921;28;19932;-82
2021/04/28 04:09:28;;;;;;;;;;;;;;;4.34;100.00;98326.69;4986636;28;20020;-82
2021/04/28 04:11:56;;;;;;;;;;;;;;;4.31;100.00;98330.25;4998305;28;19934;-82
2021/04/28 04:14:28;;;;;;;;;;;;;;;4.28;100.00;98324.72;4998648;28;19930;-82
2021/04/28 04:16:56;;;;;;;;;;;;;;;4.29;100.00;98327.09;4982093;28;19971;-82
2021/04/28 04:19:23;;;;;;;;;;;;;;;4.32;100.00;98326.28;4997520;28;19925;-82
2021/04/28 04:22:07;;;;;;;;;;;;;;;4.45;100.00;98330.22;4983967;28;20396;-82
2021/04/28 04:24:52;;;;;;;;;;;;;;;4.37;100.00;98331.41;5014411;28;19925;-82
2021/04/28 04:27:19;;;;;;;;;;;;;;;4.32;100.00;98315.22;4997378;28;20324;-82
2021/04/28 04:29:56;;;;;;;;;;;;;;;4.34;100.00;98318.38;5015551;28;19929;-82
2021/04/28 04:32:31;;;;;;;;;;;;;;;4.33;100.00;98316.00;5070656;28;19955;-82
2021/04/28 04:35:21;;;;;;;;;;;;;;;4.37;100.00;98316.78;5065711;28;19974;-82
2021/04/28 04:38:07;;;;;;;;;;;;;;;4.44;100.00;98325.06;5057907;28;19925;-82
2021/04/28 04:40:51;;;;;;;;;;;;;;;4.48;100.00;98315.56;5092085;28;19925;-81
2021/04/28 04:43:50;;;;;;;;;;;;;;;4.39;100.00;98317.94;4994628;28;19925;-82
2021/04/28 04:46:37;;;;;;;;;;;;;;;4.37;100.00;98312.06;4984449;28;19926;-83
2021/04/28 04:49:04;;;;;;;;;;;;;;;4.39;100.00;98312.41;5010979;28;20024;-82
2021/04/28 04:51:30;;;;;;;;;;;;;;;4.33;100.00;98308.50;4995010;28;19937;-81
2021/04/28 04:53:57;;;;;;;;;;;;;;;4.25;100.00;98311.69;4994503;28;19925;-82
2021/04/28 04:56:23;;;;;;;;;;;;;;;4.25;100.00;98312.50;4994685;28;20274;-82
2021/04/28 04:58:49;;;;;;;;;;;;;;;4.26;100.00;98305.75;4977649;28;20012;-82
2021/04/28 05:01:16;;;;;;;;;;;;;;;4.46;100.00;98315.19;4994516;28;19926;-82
2021/04/28 05:03:43;;;;;;;;;;;;;;;4.49;100.00;98299.75;4994273;28;19968;-82
2021/04/28 05:06:10;;;;;;;;;;;;;;;4.50;100.00;98307.63;4994357;28;19927;-81
2021/04/28 05:08:37;;;;;;;;;;;;;;;4.50;100.00;98299.34;4993867;28;19932;-82
2021/04/28 05:11:05;;;;;;;;;;;;;;;4.45;100.00;98296.22;4994016;28;19953;-82
2021/04/28 05:13:58;;;;;;;;;;;;;;;4.55;100.00;98301.69;4977844;28;19926;-82
2021/04/28 05:16:25;;;;;;;;;;;;;;;4.68;100.00;98293.75;4994238;28;20021;-81
2021/04/28 05:18:52;;;;;;;;;;;;;;;4.55;100.00;98307.22;4993568;28;19990;-82
2021/04/28 05:21:19;;;;;;;;;;;;;;;4.58;100.00;98292.59;5061934;28;20027;-82
2021/04/28 05:23:47;;;;;;;;;;;;;;;4.66;100.00;98285.03;5091216;28;19924;-82
2021/04/28 05:26:27;;;;;;;;;;;;;;;4.69;100.00;98296.09;5058258;28;19924;-82
2021/04/28 05:28:55;;;;;;;;;;;;;;;4.61;100.00;98291.00;5091072;28;19982;-81
2021/04/28 05:31:22;;;;;;;;;;;;;;;4.63;100.00;98302.47;5075468;28;19924;-82
2021/04/28 05:33:48;;;;;;;;;;;;;;;4.78;100.00;98310.28;5074138;28;19928;-82
2021/04/28 05:36:15;;;;;;;;;;;;;;;4.70;100.00;98300.44;5075570;28;19942;-81
2021/04/28 05:38:42;;;;;;;;;;;;;;;4.73;100.00;98296.88;5075154;28;19924;-82
2021/04/28 05:41:09;;;;;;;;;;;;;;;4.62;100.00;98307.19;5074011;28;19950;-82
2021/04/28 05:43:36;;;;;;;;;;;;;;;4.61;100.00;98300.09;5076322;28;19925;-82
2021/04/28 05:46:03;;;;;;;;;;;;;;;4.75;100.00;98302.81;5075913;28;19932;-82
2021/04/28 05:48:29;;;;;;;;;;;;;;;4.83;100.00;98300.78;5091778;28;19947;-83
2021/04/28 05:50:56;;;;;;;;;;;;;;;4.73;100.00;98302.41;5058104;28;19931;-82
2021/04/28 05:53:22;;;;;;;;;;;;;;;4.77;100.00;98307.94;5075873;28;19924;-82
2021/04/28 05:55:49;;;;;;;;;;;;;;;4.80;100.00;98302.34;5075418;28;19929;-81
2021/04/28 05:58:15;;;;;;;;;;;;;;;4.95;100.00;98298.31;5075477;28;20531;-81
2021/04/28 06:00:42;;;;;;;;;;;;;;;4.82;100.00;98304.72;5075870;28;20007;-82
2021/04/28 06:03:08;;;;;;;;;;;;;;;4.87;100.00;98301.53;5057581;28;19934;-82
2021/04/28 06:05:35;;;;;;;;;;;;;;;4.89;100.00;98305.47;5075736;28;19928;-82
2021/04/28 06:08:02;;;;;;;;;;;;;;;4.79;100.00;98300.78;5075179;28;19924;-82
2021/04/28 06:10:28;;;;;;;;;;;;;;;4.84;100.00;98307.88;5074046;28;19928;-82
2021/04/28 06:12:55;;;;;;;;;;;;;;;4.86;100.00;98306.28;5040733;28;19931;-83
2021/04/28 06:15:22;;;;;;;;;;;;;;;4.91;100.00;98308.63;5057336;28;19931;-83
2021/04/28 06:17:49;;;;;;;;;;;;;;;4.96;100.00;98310.97;5057235;28;19928;-83
2021/04/28 06:20:16;;;;;;;;;;;;;;;5.01;100.00;98316.06;5074958;28;20367;-83
2021/04/28 06:22:43;;;;;;;;;;;;;;;5.07;100.00;98316.47;5090088;28;19982;-83
2021/04/28 06:25:11;;;;;;;;;;;;;;;5.02;100.00;98314.09;5090564;28;19932;-83
2021/04/28 06:27:37;;;;;;;;;;;;;;;5.09;100.00;98308.50;5074642;28;19974;-83
2021/04/28 06:30:05;;;;;;;;;;;;;;;5.23;100.00;98309.22;5040053;28;19925;-83
2021/04/28 06:32:32;;;;;;;;;;;;;;;5.30;100.00;98309.16;5057096;28;19925;-84
2021/04/28 06:34:59;;;;;;;;;;;;;;;5.62;100.00;98313.69;5073282;28;19932;-83
2021/04/28 06:37:26;;;;;;;;;;;;;;;5.75;100.00;98306.44;5045971;28;20271;-83
2021/04/28 06:39:53;;;;;;;;;;;;;;;5.59;100.00;98304.97;5073285;28;19924;-83
2021/04/28 06:42:20;;;;;;;;;;;;;;;5.64;100.00;98306.53;5074383;28;19972;-83
2021/04/28 06:44:47;;;;;;;;;;;;;;;5.52;100.00;98293.97;5056572;28;20022;-83
2021/04/28 06:47:14;;;;;;;;;;;;;;;5.39;100.00;98295.66;5090523;28;20333;-83
2021/04/28 06:49:42;;;;;;;;;;;;;;;5.34;100.00;98287.78;5072769;28;20551;-83
2021/04/28 06:52:09;;;;;;;;;;;;;;;5.43;100.00;98285.34;5072739;28;19935;-83
2021/04/28 06:54:35;;;;;;;;;;;;;;;5.51;100.00;98286.84;5039570;28;19932;-82
2021/04/28 06:57:03;;;;;;;;;;;;;;;5.56;100.00;98294.72;5056589;28;20367;-84
2021/04/28 06:59:29;;;;;;;;;;;;;;;5.54;100.00;98297.09;5073871;28;19925;-84
2021/04/28 07:01:56;;;;;;;;;;;;;;;5.69;100.00;98297.00;5073577;28;19924;-83
2021/04/28 07:04:23;;;;;;;;;;;;;;;5.70;100.00;98295.78;5073673;28;19943;-83
2021/04/28 07:06:50;;;;;;;;;;;;;;;5.63;100.00;98298.63;5073360;28;19924;-84
2021/04/28 07:09:16;;;;;;;;;;;;;;;5.72;100.00;98285.09;5073497;28;20023;-84
2021/04/28 07:11:43;;;;;;;;;;;;;;;5.86;100.00;98285.75;5073735;28;19924;-84
2021/04/28 07:14:10;;;;;;;;;;;;;;;6.02;100.00;98293.53;5078439;28;20019;-81
2021/04/28 07:16:37;;;;;;;;;;;;;;;5.92;100.00;98291.66;5085065;28;19998;-84
2021/04/28 07:19:04;;;;;;;;;;;;;;;5.91;100.00;98285.31;5084578;28;19989;-83
2021/04/28 07:21:31;;;;;;;;;;;;;;;5.99;100.00;98288.81;5086433;28;19932;-82
2021/04/28 07:24:00;;;;;;;;;;;;;;;5.88;100.00;98285.38;5089908;28;19924;-83
2021/04/28 07:26:27;;;;;;;;;;;;;;;5.75;100.00;98295.34;5087957;28;19928;-83
2021/04/28 07:28:53;;;;;;;;;;;;;;;5.92;100.00;98292.47;5081683;28;20390;-83
2021/04/28 07:31:20;;;;;;;;;;;;;;;5.98;100.00;98298.34;5087504;28;19928;-83
2021/04/28 07:33:47;;;;;;;;;;;;;;;6.01;100.00;98291.97;5081892;28;19928;-83
2021/04/28 07:36:14;;;;;;;;;;;;;;;6.16;100.00;98299.72;5068015;28;19928;-83
2021/04/28 07:38:41;;;;;;;;;;;;;;;6.26;100.00;98298.03;5056603;28;19925;-83
2021/04/28 07:41:22;;;;;;;;;;;;;;;6.47;100.00;98303.31;5073633;28;19946;-82
2021/04/28 07:44:03;;;;;;;;;;;;;;;6.62;100.00;98307.53;5070063;28;19924;-83
2021/04/28 07:46:32;;;;;;;;;;;;;;;6.46;100.00;98307.31;5088534;28;20066;-83
2021/04/28 07:49:03;;;;;;;;;;;;;;;6.38;100.00;98305.81;5072597;28;19936;-83
2021/04/28 07:51:31;;;;;;;;;;;;;;;6.43;100.00;98305.38;5055195;28;19928;-83
2021/04/28 07:54:00;;;;;;;;;;;;;;;6.42;100.00;98312.13;5097858;28;20007;-83
2021/04/28 07:56:26;;;;;;;;;;;;;;;6.61;100.00;98308.72;5061437;28;20517;-82
2021/04/28 07:58:55;;;;;;;;;;;;;;;6.72;100.00;98318.50;5084327;28;19924;-83
2021/04/28 08:01:21;;;;;;;;;;;;;;;6.91;100.00;98305.94;5086732;28;19924;-83
2021/04/28 08:03:48;;;;;;;;;;;;;;;7.14;100.00;98306.03;5085661;28;19924;-83
2021/04/28 08:06:14;;;;;;;;;;;;;;;7.10;100.00;98310.84;5080067;28;19924;-83
2021/04/28 08:08:41;;;;;;;;;;;;;;;7.09;100.00;98312.03;5071759;28;19925;-84
2021/04/28 08:11:07;;;;;;;;;;;;;;;7.03;100.00;98308.94;5072606;28;19925;-83
2021/04/28 08:13:34;;;;;;;;;;;;;;;7.15;100.00;98302.81;5072645;28;19925;-83
2021/04/28 08:16:01;;;;;;;;;;;;;;;7.26;100.00;98322.91;5077948;28;20509;-83
2021/04/28 08:18:28;;;;;;;;;;;;;;;7.60;100.00;98308.91;5072272;28;20036;-83
2021/04/28 08:20:54;;;;;;;;;;;;;;;8.10;100.00;98319.97;5072091;28;19932;-83
2021/04/28 08:23:23;;;;;;;;;;;;;;;8.63;100.00;98312.19;5072259;28;19935;-84
2021/04/28 08:25:50;;;;;;;;;;;;;;;8.90;100.00;98334.31;5054430;28;19925;-84
2021/04/28 08:28:17;;;;;;;;;;;;;;;8.46;100.00;98321.69;5054687;28;19924;-83
2021/04/28 08:30:45;;;;;;;;;;;;;;;8.50;100.00;98316.81;5054462;28;20374;-83
2021/04/28 08:33:14;;;;;;;;;;;;;;;9.17;100.00;98315.44;5055353;28;19939;-83
2021/04/28 08:35:41;;;;;;;;;;;;;;;9.10;100.00;98321.94;5091811;28;19924;-83
2021/04/28 08:38:07;;;;;;;;;;;;;;;8.51;100.00;98323.97;5076291;28;19931;-82
2021/04/28 08:40:35;;;;;;;;;;;;;;;8.51;100.00;98321.19;5092078;28;19931;-82
2021/04/28 08:43:02;;;;;;;;;;;;;;;8.50;100.00;98327.97;5057993;28;20345;-83
2021/04/28 08:45:28;;;;;;;;;;;;;;;8.52;100.00;98317.19;5090996;28;20387;-82
2021/04/28 08:47:55;;;;;;;;;;;;;;;8.57;100.00;98330.59;5076485;28;19940;-83
2021/04/28 08:50:22;;;;;;;;;;;;;;;8.35;100.00;98332.22;5064566;28;20401;-82
2021/04/28 08:52:59;;;;;;;;;;;;;;;8.18;100.00;98326.97;5080261;28;19935;-82
2021/04/28 08:55:29;;;;;;;;;;;;;;;7.98;100.00;98326.91;5082216;28;20429;-82
2021/04/28 08:57:57;;;;;;;;;;;;;;;7.98;100.00;98324.13;5079649;28;19924;-83
2021/04/28 09:00:24;;;;;;;;;;;;;;;8.09;100.00;98335.84;5083330;28;20062;-83
2021/04/28 09:02:52;;;;;;;;;;;;;;;8.11;100.00;98327.88;5061548;28;20467;-80
2021/04/28 09:05:19;;;;;;;;;;;;;;;8.20;100.00;98335.66;5083220;28;19928;-80
2021/04/28 09:07:46;;;;;;;;;;;;;;;8.25;100.00;98347.13;5079591;28;19970;-80
2021/04/28 09:10:14;;;;;;;;;;;;;;;7.87;100.00;98343.00;5081817;28;19924;-80
2021/04/28 09:12:49;;;;;;;;;;;;;;;7.78;100.00;98344.75;5080221;28;20005;-80
2021/04/28 09:15:28;;;;;;;;;;;;;;;7.71;100.00;98342.84;5077867;28;20455;-80
2021/04/28 09:17:55;;;;;;;;;;;;;;;7.67;100.00;98336.56;5065549;28;20031;-83
2021/04/28 09:20:46;;;;;;;;;;;;;;;7.84;100.00;98348.63;5082945;28;20363;-82
2021/04/28 09:23:42;;;;;;;;;;;;;;;7.66;100.00;98345.34;5013071;28;20371;-83
2021/04/28 09:26:31;;;;;;;;;;;;;;;7.85;100.00;98347.41;4990375;28;19926;-83
2021/04/28 09:29:36;;;;;;;;;;;;;;;7.74;100.00;98353.13;5013077;28;20021;-82
2021/04/28 09:32:06;;;;;;;;;;;;;;;7.88;100.00;98339.00;5013035;28;19936;-82
2021/04/28 09:34:37;;;;;;;;;;;;;;;8.09;100.00;98340.66;5013145;28;19925;-82
2021/04/28 09:37:07;;;;;;;;;;;;;;;8.11;100.00;98349.34;4996602;28;20012;-82
2021/04/28 09:39:37;;;;;;;;;;;;;;;7.93;100.00;98343.31;5013001;28;19932;-82
2021/04/28 09:42:04;;;;;;;;;;;;;;;8.15;100.00;98350.09;4996466;28;20436;-79
2021/04/28 09:44:32;;;;;;;;;;;;;;;8.13;100.00;98331.03;4996015;28;20524;-82
2021/04/28 09:46:59;;;;;;;;;;;;;;;8.15;100.00;98334.16;4996391;28;19929;-81
2021/04/28 09:49:42;;;;;;;;;;;;;;;8.36;100.00;98346.94;5013022;28;20024;-79
2021/04/28 09:52:09;;;;;;;;;;;;;;;8.42;100.00;98332.09;5012565;28;19933;-79
2021/04/28 09:54:35;;;;;;;;;;;;;;;8.98;100.00;98330.94;5012140;28;19930;-79
2021/04/28 09:57:02;;;;;;;;;;;;;;;8.93;100.00;98322.31;5011832;28;19989;-79
2021/04/28 09:59:46;;;;;;;;;;;;;;;8.94;100.00;98332.25;5022118;28;19979;-79
2021/04/28 10:02:14;;;;;;;;;;;;;;;9.19;100.00;98322.13;5053173;28;19932;-79
2021/04/28 10:04:40;;;;;;;;;;;;;;;8.79;100.00;98317.84;5073919;28;19924;-79
2021/04/28 10:07:07;;;;;;;;;;;;;;;8.96;100.00;98327.84;5073296;28;19928;-79
2021/04/28 10:09:35;;;;;;;;;;;;;;;9.15;100.00;98329.78;5074293;28;19935;-79
2021/04/28 10:12:04;;;;;;;;;;;;;;;9.38;100.00;98328.09;5074196;28;20000;-79
2021/04/28 10:14:30;;;;;;;;;;;;;;;9.15;100.00;98324.22;5054317;28;19932;-79
2021/04/28 10:16:59;;;;;;;;;;;;;;;9.04;100.00;98325.69;5064459;28;19925;-79
2021/04/28 10:19:26;;;;;;;;;;;;;;;9.27;100.00;98319.19;5072416;28;19932;-78
2021/04/28 10:21:57;;;;;;;;;;;;;;;9.89;100.00;98311.31;5073505;28;19925;-77
2021/04/28 10:24:23;;;;;;;;;;;;;;;9.55;100.00;98312.94;5073552;28;19925;-77
2021/04/28 10:26:50;;;;;;;;;;;;;;;9.16;100.00;98320.19;5082797;28;19924;-77
2021/04/28 10:29:19;;;;;;;;;;;;;;;8.92;100.00;98326.34;5092158;28;20007;-77
2021/04/28 10:31:50;;;;;;;;;;;;;;;9.08;100.00;98318.81;5093367;28;19931;-76
2021/04/28 10:34:28;;;;;;;;;;;;;;;9.06;100.00;98321.22;5092086;28;19924;-77
2021/04/28 10:36:56;;;;;;;;;;;;;;;9.35;100.00;98324.16;5072898;28;20121;-77
2021/04/28 10:39:24;;;;;;;;;;;;;;;9.05;100.00;98330.81;5073289;28;19924;-77
2021/04/28 10:41:52;;;;;;;;;;;;;;;9.32;100.00;98324.25;5073406;28;20013;-77
2021/04/28 10:44:38;;;;;;;;;;;;;;;9.48;100.00;98318.72;5090025;28;19928;-77
2021/04/28 10:47:14;;;;;;;;;;;;;;;9.49;100.00;98321.06;5086381;28;19978;-77
2021/04/28 10:49:59;;;;;;;;;;;;;;;9.21;100.00;98326.50;5090238;28;19928;-77
2021/04/28 10:52:51;;;;;;;;;;;;;;;9.23;100.00;98327.63;5083561;28;19967;-77
2021/04/28 10:55:36;;;;;;;;;;;;;;;9.59;100.00;98317.22;5080164;28;19931;-77
2021/04/28 10:58:04;;;;;;;;;;;;;;;9.99;100.00;98329.00;5073325;28;19931;-77
2021/04/28 11:00:56;;;;;;;;;;;;;;;9.63;100.00;98333.88;5073539;28;20307;-77
2021/04/28 11:03:32;;;;;;;;;;;;;;;9.45;100.00;98325.16;5073339;28;19958;-79
2021/04/28 11:06:19;;;;;;;;;;;;;;;9.00;100.00;98328.53;5055558;28;19929;-80
2021/04/28 11:08:49;;;;;;;;;;;;;;;9.06;100.00;98343.53;5073815;28;20366;-79
2021/04/28 11:11:35;;;;;;;;;;;;;;;8.96;100.00;98338.97;5072740;28;19931;-80
2021/04/28 11:14:20;;;;;;;;;;;;;;;8.77;100.00;98342.53;5070794;28;20363;-77
2021/04/28 11:17:04;;;;;;;;;;;;;;;8.73;100.00;98352.19;5067912;28;20489;-77
2021/04/28 11:19:33;;;;;;;;;;;;;;;8.89;100.00;98347.47;5089366;28;20313;-80
2021/04/28 11:22:15;;;;;;;;;;;;;;;8.76;100.00;98356.91;5093230;28;19990;-79
2021/04/28 11:24:50;;;;;;;;;;;;;;;8.86;100.00;98356.69;5090568;28;19950;-79
2021/04/28 11:27:46;;;;;;;;;;;;;;;8.66;100.00;98347.53;5072250;28;19924;-78
2021/04/28 11:30:23;;;;;;;;;;;;;;;8.94;100.00;98346.97;5063214;28;20013;-79
2021/04/28 11:33:08;;;;;;;;;;;;;;;8.86;100.00;98345.53;5081831;28;19931;-80
2021/04/28 11:35:36;;;;;;;;;;;;;;;8.76;100.00;98357.69;5071980;28;20337;-80
2021/04/28 11:38:06;;;;;;;;;;;;;;;8.70;100.00;98356.63;5066145;28;19928;-77
2021/04/28 11:40:51;;;;;;;;;;;;;;;8.84;100.00;98353.56;5058735;28;19936;-77
2021/04/28 11:43:23;;;;;;;;;;;;;;;9.08;100.00;98357.81;5072115;28;19924;-78
2021/04/28 11:45:53;;;;;;;;;;;;;;;9.29;100.00;98344.63;5072306;28;19929;-78
2021/04/28 11:48:24;;;;;;;;;;;;;;;9.43;100.00;98352.66;5087393;28;20066;-77
2021/04/28 11:50:52;;;;;;;;;;;;;;;9.45;100.00;98348.22;5072323;28;19928;-77
2021/04/28 11:53:20;;;;;;;;;;;;;;;9.20;100.00;98350.78;5087739;28;19951;-77
2021/04/28 11:55:47;;;;;;;;;;;;;;;9.34;100.00;98352.47;5071709;28;19924;-78
2021/04/28 11:58:33;;;;;;;;;;;;;;;9.42;100.00;98348.31;5072194;28;20433;-78
2021/04/28 12:01:05;;;;;;;;;;;;;;;9.45;100.00;98348.22;5059087;28;20025;-77
2021/04/28 12:04:08;;;;;;;;;;;;;;;9.45;100.00;98359.38;5053970;28;19928;-77
2021/04/28 12:06:44;;;;;;;;;;;;;;;8.83;100.00;98365.91;5021340;28;20380;-78
2021/04/28 12:09:14;;;;;;;;;;;;;;;9.31;100.00;98353.34;5033233;28;20431;-77
2021/04/28 12:11:44;;;;;;;;;;;;;;;9.63;100.00;98356.19;5033402;28;20467;-78
2021/04/28 12:14:11;;;;;;;;;;;;;;;9.52;100.00;98364.03;5033408;28;19931;-77
2021/04/28 12:16:41;;;;;;;;;;;;;;;9.69;100.00;98357.25;5000521;28;19929;-77
2021/04/28 12:19:11;;;;;;;;;;;;;;;9.53;100.00;98354.41;5033070;28;19932;-77
2021/04/28 12:21:49;;;;;;;;;;;;;;;9.60;100.00;98354.28;5000706;28;20406;-80
2021/04/28 12:24:23;;;;;;;;;;;;;;;9.78;100.00;98346.28;5033191;28;19960;-80
2021/04/28 12:27:05;;;;;;;;;;;;;;;9.72;100.00;98356.38;5016943;28;19979;-77
2021/04/28 12:29:32;;;;;;;;;;;;;;;9.39;100.00;98365.91;5033193;28;20067;-78
2021/04/28 12:31:59;;;;;;;;;;;;;;;9.11;100.00;98361.75;5033136;28;19995;-78
2021/04/28 12:34:25;;;;;;;;;;;;;;;9.01;100.00;98357.19;5032834;28;20351;-77
2021/04/28 12:36:52;;;;;;;;;;;;;;;8.74;100.00;98362.91;5032935;28;19990;-78
2021/04/28 12:39:26;;;;;;;;;;;;;;;8.85;100.00;98366.25;5016519;28;20408;-78
2021/04/28 12:41:53;;;;;;;;;;;;;;;8.73;100.00;98372.47;5054513;28;19925;-77
2021/04/28 12:44:20;;;;;;;;;;;;;;;8.86;100.00;98367.81;5055744;28;19932;-77
2021/04/28 12:46:50;;;;;;;;;;;;;;;8.85;100.00;98371.84;5055460;28;19924;-77
2021/04/28 12:49:17;;;;;;;;;;;;;;;8.78;100.00;98358.03;5055563;28;20007;-77
2021/04/28 12:51:45;;;;;;;;;;;;;;;8.96;100.00;98366.03;5064132;28;19969;-78
2021/04/28 12:58:00;;;;;;;;;;;;;;;8.69;100.00;98368.94;5055546;28;19927;-78
2021/04/28 13:00:30;;;;;;;;;;;;;;;8.56;100.00;98362.44;5055372;28;19932;-78
2021/04/28 13:03:05;;;;;;;;;;;;;;;8.99;100.00;98362.41;5052105;28;19925;-78
2021/04/28 13:05:33;;;;;;;;;;;;;;;9.19;100.00;98363.94;5055183;28;19928;-77
2021/04/28 13:08:17;;;;;;;;;;;;;;;9.33;100.00;98367.66;5055054;28;19925;-78
2021/04/28 13:10:56;;;;;;;;;;;;;;;9.30;100.00;98358.13;5055526;28;20345;-78